Time;durP1;ratioP1;P1;durP2;ratioP2;P2;SDS_P1;SDS_P2;PMS_P1;PMS_P2;Temp;Humidity;BMP_temperature;BMP_pressure;BME280_temperature;BME280_humidity;BME280_pressure;Samples;Min_cycle;Max_cycle;Signal;HPM_P1;HPM_P2
2023/06/19 00:01:47;;;;;;;2.20;2.00;;;21.10;99.90;;;;;;5062253;28;20071;-78
2023/06/19 00:04:13;;;;;;;2.42;2.00;;;21.10;99.90;;;;;;5063250;28;20075;-77
2023/06/19 00:06:38;;;;;;;8.52;3.08;;;21.00;99.90;;;;;;5055301;28;20056;-78
2023/06/19 00:09:04;;;;;;;2.50;2.30;;;21.00;99.90;;;;;;5065865;28;20473;-78
2023/06/19 00:11:30;;;;;;;2.92;2.72;;;20.90;99.90;;;;;;5064334;28;20036;-78
2023/06/19 00:13:56;;;;;;;3.20;2.75;;;21.00;99.90;;;;;;5047002;28;20558;-77
2023/06/19 00:16:24;;;;;;;8.02;3.85;;;21.00;99.90;;;;;;5063809;28;20050;-78
2023/06/19 00:18:51;;;;;;;5.50;3.00;;;21.00;99.90;;;;;;5057847;28;20485;-77
2023/06/19 00:21:17;;;;;;;1.45;1.40;;;21.00;99.90;;;;;;5058927;28;20079;-77
2023/06/19 00:23:43;;;;;;;1.85;1.75;;;21.00;99.90;;;;;;5066946;28;20084;-78
2023/06/19 00:26:08;;;;;;;4.93;3.38;;;21.00;99.90;;;;;;5059468;28;20048;-78
2023/06/19 00:28:34;;;;;;;2.10;2.00;;;21.10;99.90;;;;;;5060010;28;20045;-77
2023/06/19 00:31:00;;;;;;;2.17;1.98;;;21.10;99.90;;;;;;5067604;28;20052;-77
2023/06/19 00:33:25;;;;;;;3.97;3.50;;;21.20;99.90;;;;;;5068235;28;20040;-78
2023/06/19 00:35:51;;;;;;;3.38;3.10;;;21.10;99.90;;;;;;5069224;28;20036;-78
2023/06/19 00:38:17;;;;;;;2.95;2.75;;;21.20;99.90;;;;;;5064451;28;20486;-77
2023/06/19 00:40:43;;;;;;;1.77;1.70;;;21.20;99.90;;;;;;5063263;28;20045;-78
2023/06/19 00:43:09;;;;;;;2.70;2.50;;;21.20;99.90;;;;;;5068001;28;20071;-78
2023/06/19 00:45:36;;;;;;;1.98;1.63;;;21.30;99.90;;;;;;5064221;28;20052;-78
2023/06/19 00:48:03;;;;;;;3.58;3.25;;;21.20;99.90;;;;;;5063801;28;20064;-78
2023/06/19 00:50:30;;;;;;;2.90;2.70;;;21.20;99.90;;;;;;5064075;28;20118;-77
2023/06/19 00:52:55;;;;;;;5.30;3.97;;;21.20;99.90;;;;;;5068255;28;20070;-77
2023/06/19 00:55:21;;;;;;;4.32;2.67;;;21.20;99.90;;;;;;5070212;28;20062;-77
2023/06/19 00:57:49;;;;;;;2.28;2.17;;;21.20;99.90;;;;;;5070297;28;20105;-77
2023/06/19 01:00:14;;;;;;;1.58;1.48;;;21.20;99.90;;;;;;5066506;28;20056;-77
2023/06/19 01:02:41;;;;;;;2.65;2.08;;;21.20;99.90;;;;;;5063085;28;20045;-77
2023/06/19 01:05:07;;;;;;;1.95;1.83;;;21.30;99.90;;;;;;5064386;28;20105;-77
2023/06/19 01:07:56;;;;;;;1.65;1.15;;;21.20;99.90;;;;;;5070455;28;20127;-77
2023/06/19 01:10:37;;;;;;;0.77;0.77;;;21.30;99.90;;;;;;5068447;28;20048;-77
2023/06/19 01:13:16;;;;;;;0.50;0.50;;;21.20;99.90;;;;;;5062651;28;20513;-77
2023/06/19 01:15:42;;;;;;;1.10;1.10;;;21.20;99.90;;;;;;5067669;28;20524;-77
2023/06/19 01:18:11;;;;;;;0.25;0.25;;;21.20;99.90;;;;;;5070992;28;20032;-77
2023/06/19 01:20:37;;;;;;;2.25;1.42;;;21.20;99.90;;;;;;5063042;28;20056;-77
2023/06/19 01:23:10;;;;;;;0.77;0.77;;;21.20;99.90;;;;;;5060880;28;20049;-77
2023/06/19 01:25:36;;;;;;;0.73;0.73;;;21.20;99.90;;;;;;5066057;28;21168;-77
2023/06/19 01:28:05;;;;;;;0.35;0.32;;;21.20;99.90;;;;;;5061412;28;20056;-76
2023/06/19 01:30:32;;;;;;;1.38;1.13;;;21.20;99.90;;;;;;5068372;28;20049;-76
2023/06/19 01:33:10;;;;;;;0.47;0.47;;;21.20;99.90;;;;;;5059871;28;20067;-76
2023/06/19 01:35:38;;;;;;;0.65;0.65;;;21.10;99.90;;;;;;5067088;28;20117;-77
2023/06/19 01:38:05;;;;;;;0.93;0.82;;;21.10;99.90;;;;;;5065400;28;20044;-77
2023/06/19 01:40:31;;;;;;;0.73;0.73;;;21.10;99.90;;;;;;5066013;28;20044;-77
2023/06/19 01:43:00;;;;;;;1.05;1.05;;;21.10;99.90;;;;;;5062375;28;20044;-77
2023/06/19 01:45:28;;;;;;;4.85;1.13;;;21.00;99.90;;;;;;5065926;28;20132;-77
2023/06/19 01:47:54;;;;;;;0.82;0.82;;;21.10;99.90;;;;;;5062098;28;20040;-77
2023/06/19 01:50:22;;;;;;;0.73;0.73;;;21.10;99.90;;;;;;5066781;28;20033;-77
2023/06/19 01:52:47;;;;;;;1.38;1.15;;;21.00;99.90;;;;;;5061154;28;20127;-77
2023/06/19 01:55:14;;;;;;;0.38;0.38;;;21.00;99.90;;;;;;5069505;28;20154;-77
2023/06/19 01:57:39;;;;;;;0.95;0.93;;;21.00;99.90;;;;;;5065408;28;20045;-77
2023/06/19 02:00:07;;;;;;;0.98;0.98;;;21.00;99.90;;;;;;5068012;28;20043;-77
2023/06/19 02:02:34;;;;;;;0.60;0.60;;;21.00;99.90;;;;;;5068405;28;20438;-77
2023/06/19 02:04:59;;;;;;;1.55;1.45;;;21.10;99.90;;;;;;5066000;28;20047;-77
2023/06/19 02:07:25;;;;;;;0.30;0.30;;;21.10;99.90;;;;;;5067873;28;20040;-77
2023/06/19 02:09:51;;;;;;;0.50;0.50;;;21.20;99.90;;;;;;5069276;28;20440;-77
2023/06/19 02:12:16;;;;;;;0.40;0.40;;;21.10;99.90;;;;;;5060287;28;20040;-77
2023/06/19 02:14:42;;;;;;;1.58;1.13;;;21.20;99.90;;;;;;5055106;28;20049;-77
2023/06/19 02:17:08;;;;;;;1.70;1.60;;;21.20;99.90;;;;;;5066464;28;20037;-77
2023/06/19 02:19:33;;;;;;;0.50;0.50;;;21.10;99.90;;;;;;5065795;28;20040;-77
2023/06/19 02:21:59;;;;;;;1.10;0.95;;;21.10;99.90;;;;;;5065084;28;20036;-78
2023/06/19 02:24:24;;;;;;;0.73;0.70;;;21.10;99.90;;;;;;5051600;28;20497;-77
2023/06/19 02:26:51;;;;;;;0.65;0.65;;;21.10;99.90;;;;;;5066868;28;20493;-77
2023/06/19 02:29:16;;;;;;;0.85;0.85;;;21.20;99.90;;;;;;5068428;28;20131;-78
2023/06/19 02:31:42;;;;;;;1.40;1.15;;;21.10;99.90;;;;;;5068459;28;20597;-77
2023/06/19 02:34:09;;;;;;;1.80;1.70;;;21.10;99.90;;;;;;5052644;28;20060;-77
2023/06/19 02:36:35;;;;;;;0.60;0.60;;;21.20;99.90;;;;;;5051424;28;20677;-78
2023/06/19 02:39:03;;;;;;;1.65;1.20;;;21.20;99.90;;;;;;5068347;28;20396;-78
2023/06/19 02:41:30;;;;;;;0.50;0.50;;;21.30;99.90;;;;;;5051155;28;20491;-78
2023/06/19 02:43:56;;;;;;;0.95;0.95;;;21.20;99.90;;;;;;5067501;28;20545;-78
2023/06/19 02:46:21;;;;;;;0.82;0.80;;;21.30;99.90;;;;;;5067388;28;20160;-77
2023/06/19 02:48:47;;;;;;;1.05;0.98;;;21.30;99.90;;;;;;5052737;28;20079;-77
2023/06/19 02:51:13;;;;;;;0.95;0.95;;;21.30;99.90;;;;;;5055452;28;20037;-77
2023/06/19 02:53:38;;;;;;;0.68;0.68;;;21.30;99.90;;;;;;5055557;28;20055;-77
2023/06/19 02:56:04;;;;;;;1.27;0.60;;;21.30;99.90;;;;;;5064497;28;20040;-77
2023/06/19 02:58:31;;;;;;;0.93;0.93;;;21.30;99.90;;;;;;5059473;28;20049;-77
2023/06/19 03:00:56;;;;;;;1.42;1.33;;;21.30;99.90;;;;;;5064242;28;20393;-77
2023/06/19 03:03:22;;;;;;;1.00;0.68;;;21.30;99.90;;;;;;5053957;28;20052;-78
2023/06/19 03:05:48;;;;;;;1.85;1.52;;;21.30;99.90;;;;;;5057982;28;20081;-77
2023/06/19 03:08:14;;;;;;;1.13;1.13;;;21.30;99.90;;;;;;5066916;28;20106;-78
2023/06/19 03:10:39;;;;;;;0.93;0.93;;;21.40;99.90;;;;;;5062097;28;20040;-78
2023/06/19 03:13:05;;;;;;;2.60;2.38;;;21.40;99.90;;;;;;5067339;28;20776;-78
2023/06/19 03:15:31;;;;;;;1.75;1.30;;;21.40;99.90;;;;;;5067629;28;20140;-78
2023/06/19 03:17:56;;;;;;;1.27;0.70;;;21.40;99.90;;;;;;5061240;28;20052;-78
2023/06/19 03:20:22;;;;;;;1.67;1.58;;;21.40;99.90;;;;;;5067766;28;20041;-78
2023/06/19 03:22:48;;;;;;;1.42;1.33;;;21.40;99.90;;;;;;5064170;28;20684;-78
2023/06/19 03:25:13;;;;;;;0.68;0.68;;;21.40;99.90;;;;;;5057684;28;20060;-78
2023/06/19 03:27:39;;;;;;;1.55;1.10;;;21.40;99.90;;;;;;5059233;28;20045;-78
2023/06/19 03:30:12;;;;;;;1.27;1.15;;;21.40;99.90;;;;;;5068819;28;20052;-78
2023/06/19 03:32:39;;;;;;;0.77;0.77;;;21.50;99.90;;;;;;5066648;28;20110;-78
2023/06/19 03:35:06;;;;;;;1.00;0.75;;;21.40;99.90;;;;;;5066061;28;20078;-78
2023/06/19 03:37:32;;;;;;;0.70;0.70;;;21.40;99.90;;;;;;5059733;28;20036;-77
2023/06/19 03:39:58;;;;;;;0.82;0.82;;;21.40;99.90;;;;;;5060370;28;20083;-78
2023/06/19 03:42:24;;;;;;;1.15;1.08;;;21.40;99.90;;;;;;5062322;28;20048;-78
2023/06/19 03:44:50;;;;;;;2.05;1.55;;;21.40;99.90;;;;;;5065457;28;20044;-78
2023/06/19 03:47:16;;;;;;;0.30;0.30;;;21.40;99.90;;;;;;5065587;28;20477;-77
2023/06/19 03:49:42;;;;;;;0.52;0.52;;;21.40;99.90;;;;;;5058972;28;20074;-78
2023/06/19 03:52:08;;;;;;;0.40;0.40;;;21.40;99.90;;;;;;5061143;28;20107;-79
2023/06/19 03:54:34;;;;;;;0.43;0.43;;;21.30;99.90;;;;;;5061393;28;20048;-79
2023/06/19 03:56:59;;;;;;;2.05;1.50;;;21.30;99.90;;;;;;5056037;28;20049;-78
2023/06/19 03:59:25;;;;;;;0.88;0.88;;;21.30;99.90;;;;;;5067518;28;20055;-78
2023/06/19 04:01:51;;;;;;;0.70;0.70;;;21.30;99.90;;;;;;5065214;28;20051;-78
2023/06/19 04:04:17;;;;;;;0.73;0.73;;;21.20;99.90;;;;;;5066781;28;20040;-80
2023/06/19 04:06:42;;;;;;;0.80;0.80;;;21.30;99.90;;;;;;5062500;28;20048;-81
2023/06/19 04:09:08;;;;;;;0.75;0.75;;;21.30;99.90;;;;;;5059932;28;20055;-81
2023/06/19 04:11:34;;;;;;;0.63;0.63;;;21.20;99.90;;;;;;5056332;28;20049;-80
2023/06/19 04:13:59;;;;;;;0.77;0.77;;;21.20;99.90;;;;;;5055385;28;20133;-81
2023/06/19 04:16:25;;;;;;;1.05;1.05;;;21.10;99.90;;;;;;5061034;28;20493;-82
2023/06/19 04:18:50;;;;;;;0.30;0.30;;;21.20;99.90;;;;;;5063864;28;20507;-80
2023/06/19 04:21:16;;;;;;;0.57;0.57;;;21.10;99.90;;;;;;5067235;28;20041;-81
2023/06/19 04:23:42;;;;;;;0.40;0.40;;;21.10;99.90;;;;;;5063156;28;20128;-81
2023/06/19 04:26:07;;;;;;;2.28;1.23;;;21.10;99.90;;;;;;5049778;28;20056;-81
2023/06/19 04:28:33;;;;;;;0.60;0.60;;;21.00;99.90;;;;;;5059236;28;20057;-81
2023/06/19 04:31:01;;;;;;;0.30;0.30;;;21.20;99.90;;;;;;5057336;28;20127;-82
2023/06/19 04:33:28;;;;;;;0.80;0.80;;;21.00;99.90;;;;;;5061530;28;20044;-82
2023/06/19 04:35:55;;;;;;;0.40;0.40;;;21.10;99.90;;;;;;5059149;28;20044;-80
2023/06/19 04:38:24;;;;;;;0.70;0.70;;;21.10;99.90;;;;;;5046786;28;20048;-82
2023/06/19 04:40:53;;;;;;;3.45;1.58;;;21.00;99.90;;;;;;5059121;28;20059;-82
2023/06/19 04:43:19;;;;;;;0.55;0.55;;;21.10;99.90;;;;;;5056541;28;20045;-81
2023/06/19 04:45:45;;;;;;;0.40;0.40;;;21.00;99.90;;;;;;5059738;28;20421;-80
2023/06/19 04:48:11;;;;;;;0.88;0.88;;;21.00;99.90;;;;;;5059180;28;20032;-81
2023/06/19 04:50:37;;;;;;;0.90;0.90;;;21.10;99.90;;;;;;5064763;28;20063;-81
2023/06/19 04:53:02;;;;;;;1.50;1.40;;;21.10;99.90;;;;;;5059391;28;20131;-82
2023/06/19 04:55:28;;;;;;;0.80;0.80;;;21.10;99.90;;;;;;5062581;28;20040;-80
2023/06/19 04:57:54;;;;;;;1.23;0.35;;;21.10;99.90;;;;;;5054361;28;20626;-81
2023/06/19 05:00:21;;;;;;;0.95;0.95;;;21.20;99.90;;;;;;5055831;28;20120;-81
2023/06/19 05:02:47;;;;;;;0.85;0.85;;;21.10;99.90;;;;;;5058217;28;20049;-79
2023/06/19 05:05:16;;;;;;;1.65;0.85;;;21.00;99.90;;;;;;5052154;28;20045;-78
2023/06/19 05:07:42;;;;;;;0.13;0.13;;;21.10;99.90;;;;;;5065959;28;20044;-79
2023/06/19 05:10:08;;;;;;;2.35;2.03;;;21.00;99.90;;;;;;5062982;28;20041;-78
2023/06/19 05:12:35;;;;;;;1.27;1.20;;;21.10;99.90;;;;;;5054782;28;20089;-78
2023/06/19 05:15:01;;;;;;;1.55;1.10;;;21.10;99.90;;;;;;5066333;28;20063;-78
2023/06/19 05:17:27;;;;;;;0.50;0.50;;;21.10;99.90;;;;;;5064788;28;20056;-77
2023/06/19 05:19:52;;;;;;;1.38;1.30;;;21.00;99.90;;;;;;5063175;28;20075;-75
2023/06/19 05:22:24;;;;;;;0.77;0.70;;;21.10;99.90;;;;;;5058953;28;20490;-78
2023/06/19 05:24:50;;;;;;;1.00;1.00;;;21.10;99.90;;;;;;5062654;28;20048;-77
2023/06/19 05:27:15;;;;;;;0.70;0.70;;;21.40;99.90;;;;;;5063643;28;20051;-77
2023/06/19 05:29:41;;;;;;;0.73;0.73;;;21.10;99.90;;;;;;5046634;28;20056;-78
2023/06/19 05:32:07;;;;;;;0.93;0.90;;;21.00;99.90;;;;;;5064635;28;20410;-78
2023/06/19 05:34:33;;;;;;;0.75;0.70;;;21.10;99.90;;;;;;5066820;28;20072;-78
2023/06/19 05:37:00;;;;;;;1.40;0.98;;;21.20;99.90;;;;;;5058364;28;20074;-78
2023/06/19 05:39:26;;;;;;;1.33;1.23;;;21.20;99.90;;;;;;5063265;28;20044;-78
2023/06/19 05:41:52;;;;;;;0.80;0.80;;;21.20;99.90;;;;;;5065803;28;20477;-76
2023/06/19 05:44:18;;;;;;;0.40;0.40;;;21.10;99.90;;;;;;5066305;28;20527;-76
2023/06/19 05:46:44;;;;;;;1.55;1.30;;;21.10;99.90;;;;;;5065045;28;20080;-75
2023/06/19 05:49:13;;;;;;;1.02;0.93;;;21.10;99.90;;;;;;5066806;28;20571;-75
2023/06/19 05:51:39;;;;;;;2.45;1.10;;;21.00;99.90;;;;;;5066431;28;20041;-76
2023/06/19 05:54:04;;;;;;;0.55;0.55;;;21.00;99.90;;;;;;5054482;28;20045;-76
2023/06/19 05:56:32;;;;;;;1.27;1.17;;;21.00;99.90;;;;;;5067127;28;20568;-77
2023/06/19 05:59:01;;;;;;;1.58;1.33;;;21.30;99.90;;;;;;5055357;28;20706;-77
2023/06/19 06:01:30;;;;;;;0.68;0.68;;;21.30;99.90;;;;;;5041617;28;20156;-77
2023/06/19 06:03:56;;;;;;;1.70;1.60;;;21.40;99.90;;;;;;5058020;28;20054;-77
2023/06/19 06:06:28;;;;;;;1.17;1.13;;;21.50;99.90;;;;;;5059998;28;20436;-77
2023/06/19 06:08:54;;;;;;;1.17;1.08;;;21.50;99.90;;;;;;5058455;28;20055;-75
2023/06/19 06:11:21;;;;;;;0.20;0.20;;;21.60;99.90;;;;;;5057065;28;20052;-77
2023/06/19 06:13:46;;;;;;;0.63;0.57;;;21.80;99.90;;;;;;5059114;28;20049;-76
2023/06/19 06:16:12;;;;;;;1.33;1.23;;;21.90;99.90;;;;;;5063892;28;20041;-77
2023/06/19 06:18:38;;;;;;;0.32;0.32;;;21.90;99.90;;;;;;5059299;28;20041;-77
2023/06/19 06:21:04;;;;;;;1.00;1.00;;;22.00;99.90;;;;;;5060779;28;20084;-78
2023/06/19 06:23:30;;;;;;;0.65;0.65;;;22.00;99.90;;;;;;5066170;28;20417;-78
2023/06/19 06:26:01;;;;;;;0.82;0.70;;;22.20;99.90;;;;;;5054462;28;20048;-78
2023/06/19 06:28:27;;;;;;;0.50;0.50;;;22.20;99.90;;;;;;5059508;28;20078;-77
2023/06/19 06:30:52;;;;;;;0.50;0.50;;;22.30;99.90;;;;;;5062353;28;20449;-77
2023/06/19 06:33:18;;;;;;;0.57;0.57;;;22.50;99.90;;;;;;5042274;28;20123;-76
2023/06/19 06:35:43;;;;;;;1.20;1.10;;;22.30;99.90;;;;;;5066411;28;20059;-72
2023/06/19 06:38:09;;;;;;;0.77;0.77;;;22.50;99.90;;;;;;5062365;28;20049;-72
2023/06/19 06:40:36;;;;;;;0.40;0.40;;;22.40;99.90;;;;;;5054653;28;20597;-72
2023/06/19 06:43:02;;;;;;;0.50;0.50;;;22.60;99.90;;;;;;5058371;28;20646;-71
2023/06/19 06:45:27;;;;;;;0.47;0.47;;;22.70;99.90;;;;;;5061431;28;20040;-72
2023/06/19 06:47:53;;;;;;;0.73;0.73;;;22.60;99.90;;;;;;5062569;28;20088;-72
2023/06/19 06:50:18;;;;;;;0.77;0.77;;;22.80;99.90;;;;;;5058133;28;20414;-72
2023/06/19 06:52:44;;;;;;;0.90;0.75;;;22.80;99.90;;;;;;5059071;28;20052;-72
2023/06/19 06:55:10;;;;;;;0.93;0.93;;;22.80;99.90;;;;;;5067941;28;20080;-72
2023/06/19 06:57:35;;;;;;;1.40;1.30;;;22.70;99.90;;;;;;5066098;28;20044;-72
2023/06/19 07:00:03;;;;;;;0.82;0.43;;;22.90;99.90;;;;;;5066563;28;20523;-72
2023/06/19 07:02:29;;;;;;;1.08;0.73;;;22.70;99.90;;;;;;5067342;28;20409;-70
2023/06/19 07:04:55;;;;;;;0.73;0.73;;;22.80;99.90;;;;;;5066679;28;20049;-70
2023/06/19 07:07:20;;;;;;;1.33;1.17;;;22.80;99.90;;;;;;5067978;28;20049;-70
2023/06/19 07:09:47;;;;;;;0.52;0.45;;;22.60;99.90;;;;;;5068244;28;20486;-70
2023/06/19 07:12:12;;;;;;;1.00;1.00;;;22.50;99.90;;;;;;5057010;28;20135;-70
2023/06/19 07:14:38;;;;;;;1.17;1.17;;;22.50;99.90;;;;;;5066492;28;20125;-70
2023/06/19 07:17:06;;;;;;;0.68;0.68;;;22.60;99.90;;;;;;5044381;28;20174;-70
2023/06/19 07:19:32;;;;;;;1.02;1.00;;;22.50;99.90;;;;;;5067400;28;20661;-70
2023/06/19 07:21:59;;;;;;;2.42;1.55;;;22.30;99.90;;;;;;5058674;28;20040;-70
2023/06/19 07:24:25;;;;;;;3.70;1.70;;;22.30;99.90;;;;;;5058197;28;20675;-69
2023/06/19 07:26:50;;;;;;;1.67;1.50;;;22.20;99.90;;;;;;5061077;28;20033;-70
2023/06/19 07:29:16;;;;;;;1.77;1.67;;;22.20;99.90;;;;;;5067223;28;20067;-70
2023/06/19 07:31:44;;;;;;;1.63;1.52;;;22.10;99.90;;;;;;5058582;28;20079;-69
2023/06/19 07:34:11;;;;;;;1.50;1.40;;;22.30;99.90;;;;;;5050269;28;20052;-70
2023/06/19 07:36:36;;;;;;;4.10;2.63;;;22.20;99.90;;;;;;5061671;28;20102;-70
2023/06/19 07:39:02;;;;;;;1.45;1.38;;;22.20;99.90;;;;;;5058300;28;20048;-70
2023/06/19 07:41:28;;;;;;;1.08;1.08;;;22.10;99.90;;;;;;5066174;28;20047;-70
2023/06/19 07:43:54;;;;;;;2.20;2.03;;;22.30;99.90;;;;;;5060382;28;20041;-69
2023/06/19 07:46:19;;;;;;;0.88;0.88;;;22.10;99.90;;;;;;5062664;28;20079;-70
2023/06/19 07:48:45;;;;;;;0.73;0.73;;;22.20;99.90;;;;;;5063747;28;20413;-70
2023/06/19 07:51:11;;;;;;;0.98;0.98;;;22.20;99.90;;;;;;5059895;28;20124;-70
2023/06/19 07:53:37;;;;;;;0.70;0.70;;;21.90;99.90;;;;;;5045257;28;20032;-70
2023/06/19 07:56:03;;;;;;;0.60;0.60;;;21.90;99.90;;;;;;5063603;28;20045;-72
2023/06/19 07:58:30;;;;;;;1.35;1.25;;;21.80;99.90;;;;;;5082822;28;20032;-72
2023/06/19 08:00:55;;;;;;;1.38;1.38;;;21.90;99.90;;;;;;5063038;28;20044;-71
2023/06/19 08:03:22;;;;;;;2.05;1.95;;;22.00;99.90;;;;;;5067715;28;20058;-71
2023/06/19 08:05:48;;;;;;;1.10;0.67;;;21.70;99.90;;;;;;5066348;28;20052;-71
2023/06/19 08:08:13;;;;;;;2.13;1.67;;;21.70;99.90;;;;;;5057087;28;20313;-71
2023/06/19 08:10:40;;;;;;;1.00;1.00;;;21.70;99.90;;;;;;5065442;28;20059;-71
2023/06/19 08:13:06;;;;;;;0.80;0.80;;;21.80;99.90;;;;;;5049716;28;20115;-71
2023/06/19 08:15:32;;;;;;;1.83;1.73;;;;;;;;;;5060626;28;20095;-71
2023/06/19 08:17:58;;;;;;;0.40;0.40;;;21.70;99.90;;;;;;5068286;28;20056;-71
2023/06/19 08:20:24;;;;;;;1.52;1.42;;;21.60;99.90;;;;;;5062387;28;20037;-71
2023/06/19 08:22:49;;;;;;;0.90;0.90;;;21.80;99.90;;;;;;5066345;28;20063;-71
2023/06/19 08:25:15;;;;;;;2.97;1.92;;;21.60;99.90;;;;;;5063724;28;20481;-71
2023/06/19 08:27:41;;;;;;;1.10;1.10;;;21.60;99.90;;;;;;5058778;28;20056;-71
2023/06/19 08:30:07;;;;;;;1.73;1.67;;;21.60;99.90;;;;;;5064610;28;20052;-71
2023/06/19 08:32:34;;;;;;;2.97;2.78;;;21.50;99.90;;;;;;5059358;28;20041;-71
2023/06/19 08:35:00;;;;;;;1.17;1.17;;;21.60;99.90;;;;;;5066990;28;20056;-72
2023/06/19 08:37:25;;;;;;;1.88;1.60;;;21.60;99.90;;;;;;5065543;28;20047;-71
2023/06/19 08:39:51;;;;;;;2.85;1.70;;;21.70;99.90;;;;;;5062724;28;20041;-72
2023/06/19 08:42:16;;;;;;;3.03;1.80;;;21.80;99.90;;;;;;5061447;28;20045;-72
2023/06/19 08:44:42;;;;;;;1.02;1.02;;;22.00;99.90;;;;;;5061228;28;20072;-72
2023/06/19 08:47:09;;;;;;;1.80;1.65;;;21.90;99.90;;;;;;5062903;28;20486;-72
2023/06/19 08:49:36;;;;;;;1.25;1.15;;;22.00;99.90;;;;;;5065927;28;20145;-72
2023/06/19 08:52:03;;;;;;;1.17;1.17;;;22.00;99.90;;;;;;5069611;28;20044;-72
2023/06/19 08:54:29;;;;;;;1.90;1.40;;;22.00;99.90;;;;;;5086099;28;20430;-72
2023/06/19 08:56:55;;;;;;;2.03;1.88;;;22.10;99.90;;;;;;5065447;28;20059;-72
2023/06/19 08:59:21;;;;;;;2.03;1.77;;;22.00;99.90;;;;;;5066796;28;20136;-71
2023/06/19 09:01:52;;;;;;;1.25;1.15;;;22.10;99.90;;;;;;5069133;28;20040;-72
2023/06/19 09:04:28;;;;;;;1.98;1.88;;;22.20;99.90;;;;;;5065156;28;20052;-71
2023/06/19 09:07:02;;;;;;;2.25;1.88;;;;;;;;;;5065234;28;20053;-70
2023/06/19 09:09:28;;;;;;;3.38;3.05;;;22.60;99.90;;;;;;5066460;28;20079;-70
2023/06/19 09:11:58;;;;;;;1.70;1.60;;;22.50;99.90;;;;;;5064584;28;20190;-70
2023/06/19 09:14:37;;;;;;;2.10;2.00;;;22.80;99.90;;;;;;5061090;28;20051;-70
2023/06/19 09:17:04;;;;;;;2.53;2.38;;;22.80;99.90;;;;;;5066971;28;20120;-70
2023/06/19 09:19:31;;;;;;;3.33;3.08;;;22.90;99.90;;;;;;5068340;28;20044;-70
2023/06/19 09:22:02;;;;;;;1.88;1.77;;;22.90;99.90;;;;;;5058986;28;20084;-70
2023/06/19 09:24:41;;;;;;;1.98;1.88;;;23.00;99.90;;;;;;5054822;28;20048;-70
2023/06/19 09:27:07;;;;;;;3.20;2.42;;;23.00;99.90;;;;;;5054361;28;20080;-70
2023/06/19 09:29:38;;;;;;;1.80;1.70;;;23.20;99.90;;;;;;5065538;28;20448;-70
2023/06/19 09:32:14;;;;;;;3.50;3.08;;;23.10;99.90;;;;;;5063672;28;20290;-70
2023/06/19 09:34:40;;;;;;;2.58;2.38;;;23.10;99.90;;;;;;5067784;28;20405;-70
2023/06/19 09:37:07;;;;;;;2.47;1.88;;;23.20;99.90;;;;;;5066762;28;20045;-70
2023/06/19 09:39:37;;;;;;;1.77;1.67;;;23.10;99.90;;;;;;5067214;28;20094;-70
2023/06/19 09:42:03;;;;;;;1.52;1.42;;;23.20;99.90;;;;;;5069473;28;20403;-70
2023/06/19 09:44:42;;;;;;;1.58;1.48;;;23.10;99.90;;;;;;5069397;28;20040;-71
2023/06/19 09:47:18;;;;;;;1.20;1.20;;;23.20;99.90;;;;;;5067605;28;20125;-70
2023/06/19 09:49:56;;;;;;;2.05;1.63;;;23.30;99.90;;;;;;5067757;28;20123;-70
2023/06/19 09:52:23;;;;;;;2.25;1.55;;;23.20;99.90;;;;;;5064861;28;20064;-71
2023/06/19 09:54:51;;;;;;;1.23;1.20;;;23.20;99.90;;;;;;5047728;28;20044;-70
2023/06/19 09:57:18;;;;;;;0.90;0.90;;;23.20;99.90;;;;;;5066694;28;20052;-70
2023/06/19 09:59:44;;;;;;;1.52;0.93;;;23.20;99.90;;;;;;5064061;28;20444;-70
2023/06/19 10:02:12;;;;;;;4.47;1.90;;;23.10;99.90;;;;;;5069616;28;20503;-70
2023/06/19 10:04:43;;;;;;;;;;;23.20;99.90;;;;;;5062674;28;20283;-70
2023/06/19 10:07:16;;;;;;;2.17;1.98;;;23.30;99.90;;;;;;5063531;28;20386;-70
2023/06/19 10:09:42;;;;;;;0.90;0.90;;;23.50;99.90;;;;;;5062143;28;20048;-70
2023/06/19 10:12:14;;;;;;;0.65;0.65;;;;;;;;;;5057571;28;20067;-70
2023/06/19 10:14:50;;;;;;;0.40;0.40;;;24.10;99.90;;;;;;5068264;28;20052;-70
2023/06/19 10:17:19;;;;;;;0.77;0.77;;;24.30;99.90;;;;;;5061865;28;20163;-69
2023/06/19 10:19:52;;;;;;;2.47;2.00;;;24.60;99.90;;;;;;5068330;28;20085;-71
2023/06/19 10:22:24;;;;;;;1.52;1.27;;;24.80;99.90;;;;;;5061179;28;20175;-70
2023/06/19 10:24:50;;;;;;;1.60;1.35;;;;;;;;;;5065163;28;20084;-70
2023/06/19 10:27:22;;;;;;;1.75;1.63;;;25.20;99.90;;;;;;5061274;28;20052;-70
2023/06/19 10:29:57;;;;;;;1.52;1.42;;;25.20;99.90;;;;;;5063106;28;20048;-71
2023/06/19 10:32:23;;;;;;;1.95;1.85;;;25.20;99.90;;;;;;5061261;28;20090;-71
2023/06/19 10:34:49;;;;;;;1.25;1.25;;;;;;;;;;5060395;28;20045;-70
2023/06/19 10:37:16;;;;;;;0.82;0.82;;;25.40;99.90;;;;;;5057246;28;20811;-70
2023/06/19 10:39:42;;;;;;;1.10;1.10;;;25.70;99.90;;;;;;5062029;28;20490;-71
2023/06/19 10:42:09;;;;;;;1.80;1.70;;;25.60;99.90;;;;;;5068138;28;20759;-71
2023/06/19 10:44:36;;;;;;;1.02;1.02;;;25.60;99.90;;;;;;5068095;28;20803;-72
2023/06/19 10:47:02;;;;;;;3.60;2.70;;;25.50;99.90;;;;;;5069282;28;20098;-71
2023/06/19 10:49:28;;;;;;;1.85;1.75;;;25.50;99.90;;;;;;5057693;28;20033;-71
2023/06/19 10:51:58;;;;;;;1.33;1.23;;;25.40;99.90;;;;;;5059999;28;20040;-71
2023/06/19 10:54:25;;;;;;;1.80;1.33;;;25.50;99.90;;;;;;5065756;28;20120;-71
2023/06/19 10:56:51;;;;;;;0.70;0.70;;;25.50;99.90;;;;;;5068293;28;20087;-71
2023/06/19 10:59:18;;;;;;;1.23;1.23;;;25.70;99.90;;;;;;5062890;28;20462;-71
2023/06/19 11:01:50;;;;;;;0.40;0.40;;;25.80;99.90;;;;;;5047576;28;20041;-70
2023/06/19 11:04:16;;;;;;;1.48;0.93;;;25.90;99.90;;;;;;5058996;28;20075;-70
2023/06/19 11:06:44;;;;;;;0.88;0.88;;;25.80;99.90;;;;;;5058950;28;20443;-70
2023/06/19 11:09:11;;;;;;;;;;;26.10;99.90;;;;;;5061575;28;20049;-70
2023/06/19 11:11:45;;;;;;;1.60;1.48;;;26.20;99.90;;;;;;5060036;28;19970;-70
2023/06/19 11:14:13;;;;;;;7.97;1.30;;;26.10;99.90;;;;;;5066769;28;20044;-70
2023/06/19 11:16:44;;;;;;;0.82;0.65;;;26.00;99.90;;;;;;5064103;28;20080;-70
2023/06/19 11:19:15;;;;;;;0.65;0.65;;;25.90;99.90;;;;;;5061738;28;22309;-70
2023/06/19 11:21:46;;;;;;;2.00;1.90;;;25.70;99.90;;;;;;5063950;28;20048;-70
2023/06/19 11:24:13;;;;;;;0.98;0.93;;;;;;;;;;5066402;28;20052;-69
2023/06/19 11:26:49;;;;;;;2.08;1.33;;;25.50;99.90;;;;;;5061177;28;20132;-70
2023/06/19 11:29:17;;;;;;;1.05;1.05;;;25.60;99.90;;;;;;5043980;28;20158;-70
2023/06/19 11:31:43;;;;;;;0.70;0.70;;;;;;;;;;5050254;28;20133;-70
2023/06/19 11:34:09;;;;;;;1.05;1.05;;;25.80;99.90;;;;;;5068714;28;20040;-69
2023/06/19 11:36:37;;;;;;;0.82;0.82;;;25.90;99.90;;;;;;5066347;28;20044;-70
2023/06/19 11:39:05;;;;;;;1.25;1.15;;;26.10;99.90;;;;;;5064516;28;20068;-71
2023/06/19 11:41:30;;;;;;;;;;;26.20;99.90;;;;;;5064312;28;20858;-71
2023/06/19 11:44:06;;;;;;;2.17;1.52;;;;;;;;;;5052630;28;19921;-71
2023/06/19 11:46:33;;;;;;;1.08;1.08;;;;;;;;;;5051344;28;20044;-70
2023/06/19 11:49:09;;;;;;;1.45;1.40;;;;;;;;;;5049730;28;20518;-70
2023/06/19 11:51:35;;;;;;;1.20;1.20;;;;;;;;;;5062768;28;20128;-70
2023/06/19 11:54:02;;;;;;;1.47;1.47;;;;;;;;;;5066224;28;20381;-69
2023/06/19 11:56:29;;;;;;;1.20;1.02;;;;;;;;;;5063086;28;20091;-70
2023/06/19 11:58:55;;;;;;;8.50;3.30;;;26.40;99.90;;;;;;5067575;28;20059;-70
2023/06/19 12:01:21;;;;;;;1.05;0.95;;;;;;;;;;5064725;28;20053;-70
2023/06/19 12:03:47;;;;;;;1.40;1.30;;;;;;;;;;5065402;28;20040;-70
2023/06/19 12:06:13;;;;;;;1.52;1.42;;;;;;;;;;5055932;28;20071;-70
2023/06/19 12:08:39;;;;;;;2.33;2.17;;;;;;;;;;5062085;28;20043;-70
2023/06/19 12:11:08;;;;;;;2.35;2.15;;;;;;;;;;5059748;28;20120;-70
2023/06/19 12:13:34;;;;;;;2.13;1.92;;;;;;;;;;5063770;28;20045;-70
2023/06/19 12:16:00;;;;;;;0.60;0.60;;;;;;;;;;5063768;28;20049;-70
2023/06/19 12:18:27;;;;;;;2.85;2.10;;;;;;;;;;5064639;28;20044;-70
2023/06/19 12:20:53;;;;;;;1.52;1.42;;;;;;;;;;5062685;28;20049;-70
2023/06/19 12:23:19;;;;;;;1.35;1.25;;;;;;;;;;5067080;28;20715;-70
2023/06/19 12:25:45;;;;;;;1.95;1.48;;;;;;;;;;5064733;28;20513;-70
2023/06/19 12:28:16;;;;;;;0.80;0.80;;;;;;;;;;5059451;28;20053;-69
2023/06/19 12:30:42;;;;;;;1.40;1.10;;;;;;;;;;5057624;28;20052;-70
2023/06/19 12:33:09;;;;;;;2.40;1.52;;;;;;;;;;5060771;28;20045;-70
2023/06/19 12:35:35;;;;;;;2.70;2.25;;;;;;;;;;5066360;28;20048;-70
2023/06/19 12:38:01;;;;;;;2.60;2.35;;;;;;;;;;5066676;28;20052;-69
2023/06/19 12:40:27;;;;;;;1.27;1.17;;;;;;;;;;5068106;28;20049;-70
2023/06/19 12:42:53;;;;;;;3.80;1.88;;;;;;;;;;5065918;28;20063;-70
2023/06/19 12:45:19;;;;;;;1.17;1.08;;;;;;;;;;5071024;28;20047;-70
2023/06/19 12:47:45;;;;;;;1.65;1.55;;;;;;;;;;5068850;28;20415;-70
2023/06/19 12:50:12;;;;;;;1.58;1.48;;;;;;;;;;5061063;28;20255;-70
2023/06/19 12:52:38;;;;;;;1.55;1.10;;;;;;;;;;5070605;28;20127;-70
2023/06/19 12:55:04;;;;;;;1.38;1.25;;;;;;;;;;5065302;28;20044;-70
2023/06/19 12:57:30;;;;;;;1.67;1.58;;;;;;;;;;5067807;28;20409;-70
2023/06/19 12:59:56;;;;;;;0.70;0.70;;;;;;;;;;5068211;28;20075;-70